sensor_id;sensor_type;location;lat;lon;timestamp;P1;durP1;ratioP1;P2;durP2;ratioP2
48189;SDS011;33980;47.436;18.926;2022-09-09T00:01:17;1.95;;;1.10;;
48189;SDS011;33980;47.436;18.926;2022-09-09T00:03:53;1.27;;;1.00;;
48189;SDS011;33980;47.436;18.926;2022-09-09T00:06:24;1.27;;;1.10;;
48189;SDS011;33980;47.436;18.926;2022-09-09T00:09:04;2.50;;;1.10;;
48189;SDS011;33980;47.436;18.926;2022-09-09T00:11:40;1.25;;;0.90;;
48189;SDS011;33980;47.436;18.926;2022-09-09T00:14:12;2.22;;;1.37;;
48189;SDS011;33980;47.436;18.926;2022-09-09T00:16:46;0.80;;;0.80;;
48189;SDS011;33980;47.436;18.926;2022-09-09T00:19:20;0.77;;;0.73;;
48189;SDS011;33980;47.436;18.926;2022-09-09T00:21:53;1.50;;;1.20;;
48189;SDS011;33980;47.436;18.926;2022-09-09T00:24:29;2.62;;;1.35;;
48189;SDS011;33980;47.436;18.926;2022-09-09T00:27:04;2.12;;;1.25;;
48189;SDS011;33980;47.436;18.926;2022-09-09T00:29:35;2.37;;;1.33;;
48189;SDS011;33980;47.436;18.926;2022-09-09T00:32:09;2.17;;;1.20;;
48189;SDS011;33980;47.436;18.926;2022-09-09T00:34:44;0.95;;;0.88;;
48189;SDS011;33980;47.436;18.926;2022-09-09T00:37:15;0.95;;;0.77;;
48189;SDS011;33980;47.436;18.926;2022-09-09T00:39:46;4.37;;;1.45;;
48189;SDS011;33980;47.436;18.926;2022-09-09T00:42:16;1.62;;;1.10;;
48189;SDS011;33980;47.436;18.926;2022-09-09T00:44:50;1.43;;;1.03;;
48189;SDS011;33980;47.436;18.926;2022-09-09T00:47:27;1.73;;;1.17;;
48189;SDS011;33980;47.436;18.926;2022-09-09T00:50:10;2.65;;;1.20;;
48189;SDS011;33980;47.436;18.926;2022-09-09T00:52:46;1.80;;;1.30;;
48189;SDS011;33980;47.436;18.926;2022-09-09T00:55:19;4.07;;;1.25;;
48189;SDS011;33980;47.436;18.926;2022-09-09T00:57:53;1.80;;;1.00;;
48189;SDS011;33980;47.436;18.926;2022-09-09T01:00:23;1.67;;;1.07;;
48189;SDS011;33980;47.436;18.926;2022-09-09T01:02:55;2.47;;;1.20;;
48189;SDS011;33980;47.436;18.926;2022-09-09T01:05:41;1.52;;;1.00;;
48189;SDS011;33980;47.436;18.926;2022-09-09T01:08:16;1.15;;;1.02;;
48189;SDS011;33980;47.436;18.926;2022-09-09T01:10:53;1.73;;;1.17;;
48189;SDS011;33980;47.436;18.926;2022-09-09T01:13:24;1.80;;;1.10;;
48189;SDS011;33980;47.436;18.926;2022-09-09T01:15:54;1.75;;;1.12;;
48189;SDS011;33980;47.436;18.926;2022-09-09T01:18:29;1.50;;;1.10;;
48189;SDS011;33980;47.436;18.926;2022-09-09T01:21:05;1.37;;;0.95;;
48189;SDS011;33980;47.436;18.926;2022-09-09T01:26:35;1.55;;;1.25;;
48189;SDS011;33980;47.436;18.926;2022-09-09T01:29:07;1.58;;;1.20;;
48189;SDS011;33980;47.436;18.926;2022-09-09T01:31:38;2.03;;;1.40;;
48189;SDS011;33980;47.436;18.926;2022-09-09T01:34:09;1.52;;;1.17;;
48189;SDS011;33980;47.436;18.926;2022-09-09T01:36:41;2.25;;;1.15;;
48189;SDS011;33980;47.436;18.926;2022-09-09T01:39:12;1.73;;;1.02;;
48189;SDS011;33980;47.436;18.926;2022-09-09T01:41:43;2.25;;;1.30;;
48189;SDS011;33980;47.436;18.926;2022-09-09T01:44:12;1.48;;;1.20;;
48189;SDS011;33980;47.436;18.926;2022-09-09T01:46:42;1.73;;;1.30;;
48189;SDS011;33980;47.436;18.926;2022-09-09T01:49:11;1.12;;;1.02;;
48189;SDS011;33980;47.436;18.926;2022-09-09T01:51:40;1.02;;;0.85;;
48189;SDS011;33980;47.436;18.926;2022-09-09T01:54:10;1.37;;;1.20;;
48189;SDS011;33980;47.436;18.926;2022-09-09T01:56:40;1.95;;;1.35;;
48189;SDS011;33980;47.436;18.926;2022-09-09T01:59:18;1.65;;;1.15;;
48189;SDS011;33980;47.436;18.926;2022-09-09T02:02:02;2.00;;;1.30;;
48189;SDS011;33980;47.436;18.926;2022-09-09T02:04:39;1.45;;;1.10;;
48189;SDS011;33980;47.436;18.926;2022-09-09T02:07:12;5.82;;;2.62;;
48189;SDS011;33980;47.436;18.926;2022-09-09T02:09:47;2.55;;;1.40;;
48189;SDS011;33980;47.436;18.926;2022-09-09T02:12:21;1.42;;;1.17;;
48189;SDS011;33980;47.436;18.926;2022-09-09T02:14:55;1.33;;;1.00;;
48189;SDS011;33980;47.436;18.926;2022-09-09T02:17:25;1.12;;;0.98;;
48189;SDS011;33980;47.436;18.926;2022-09-09T02:19:59;4.90;;;1.75;;
48189;SDS011;33980;47.436;18.926;2022-09-09T02:22:33;1.80;;;1.30;;
48189;SDS011;33980;47.436;18.926;2022-09-09T02:25:03;2.40;;;1.50;;
48189;SDS011;33980;47.436;18.926;2022-09-09T02:27:35;1.35;;;1.02;;
48189;SDS011;33980;47.436;18.926;2022-09-09T02:30:04;1.45;;;1.05;;
48189;SDS011;33980;47.436;18.926;2022-09-09T02:32:33;2.62;;;1.40;;
48189;SDS011;33980;47.436;18.926;2022-09-09T02:35:05;1.55;;;1.20;;
48189;SDS011;33980;47.436;18.926;2022-09-09T02:37:38;1.90;;;1.08;;
48189;SDS011;33980;47.436;18.926;2022-09-09T02:40:08;2.42;;;1.17;;
48189;SDS011;33980;47.436;18.926;2022-09-09T02:42:40;4.25;;;1.35;;
48189;SDS011;33980;47.436;18.926;2022-09-09T02:45:11;1.50;;;1.08;;
48189;SDS011;33980;47.436;18.926;2022-09-09T02:47:43;1.90;;;1.12;;
48189;SDS011;33980;47.436;18.926;2022-09-09T02:50:19;1.02;;;0.90;;
48189;SDS011;33980;47.436;18.926;2022-09-09T02:52:54;1.75;;;1.23;;
48189;SDS011;33980;47.436;18.926;2022-09-09T02:55:34;1.10;;;0.90;;
48189;SDS011;33980;47.436;18.926;2022-09-09T02:58:09;1.55;;;0.93;;
48189;SDS011;33980;47.436;18.926;2022-09-09T03:00:40;1.77;;;1.40;;
48189;SDS011;33980;47.436;18.926;2022-09-09T03:03:09;1.80;;;1.17;;
48189;SDS011;33980;47.436;18.926;2022-09-09T03:05:38;1.48;;;1.02;;
48189;SDS011;33980;47.436;18.926;2022-09-09T03:08:11;1.25;;;0.90;;
48189;SDS011;33980;47.436;18.926;2022-09-09T03:10:44;1.70;;;1.10;;
48189;SDS011;33980;47.436;18.926;2022-09-09T03:13:15;2.17;;;1.20;;
48189;SDS011;33980;47.436;18.926;2022-09-09T03:15:47;2.30;;;1.12;;
48189;SDS011;33980;47.436;18.926;2022-09-09T03:18:16;1.95;;;1.15;;
48189;SDS011;33980;47.436;18.926;2022-09-09T03:20:46;1.77;;;1.30;;
48189;SDS011;33980;47.436;18.926;2022-09-09T03:23:16;1.70;;;1.20;;
48189;SDS011;33980;47.436;18.926;2022-09-09T03:25:48;2.67;;;1.33;;
48189;SDS011;33980;47.436;18.926;2022-09-09T03:28:19;1.50;;;1.15;;
48189;SDS011;33980;47.436;18.926;2022-09-09T03:30:49;2.35;;;1.35;;
48189;SDS011;33980;47.436;18.926;2022-09-09T03:33:19;2.05;;;1.25;;
48189;SDS011;33980;47.436;18.926;2022-09-09T03:35:47;2.60;;;1.20;;
48189;SDS011;33980;47.436;18.926;2022-09-09T03:38:17;3.45;;;1.67;;
48189;SDS011;33980;47.436;18.926;2022-09-09T03:40:49;1.48;;;1.00;;
48189;SDS011;33980;47.436;18.926;2022-09-09T03:43:20;3.12;;;1.58;;
48189;SDS011;33980;47.436;18.926;2022-09-09T03:48:19;1.80;;;1.20;;
48189;SDS011;33980;47.436;18.926;2022-09-09T03:50:49;1.85;;;1.20;;
48189;SDS011;33980;47.436;18.926;2022-09-09T03:53:19;3.60;;;1.80;;
48189;SDS011;33980;47.436;18.926;2022-09-09T03:55:50;3.15;;;1.50;;
48189;SDS011;33980;47.436;18.926;2022-09-09T03:58:23;3.12;;;1.60;;
48189;SDS011;33980;47.436;18.926;2022-09-09T04:00:58;1.83;;;1.20;;
48189;SDS011;33980;47.436;18.926;2022-09-09T04:03:28;2.70;;;1.67;;
48189;SDS011;33980;47.436;18.926;2022-09-09T04:05:58;3.00;;;1.95;;
48189;SDS011;33980;47.436;18.926;2022-09-09T04:08:29;2.72;;;1.70;;
48189;SDS011;33980;47.436;18.926;2022-09-09T04:11:00;4.90;;;2.17;;
48189;SDS011;33980;47.436;18.926;2022-09-09T04:13:34;2.62;;;1.42;;
48189;SDS011;33980;47.436;18.926;2022-09-09T04:16:04;1.92;;;1.20;;
48189;SDS011;33980;47.436;18.926;2022-09-09T04:18:34;3.53;;;1.95;;
48189;SDS011;33980;47.436;18.926;2022-09-09T04:21:03;4.55;;;2.08;;
48189;SDS011;33980;47.436;18.926;2022-09-09T04:23:34;1.45;;;1.23;;
48189;SDS011;33980;47.436;18.926;2022-09-09T04:26:04;3.05;;;1.87;;
48189;SDS011;33980;47.436;18.926;2022-09-09T04:28:35;1.60;;;1.25;;
48189;SDS011;33980;47.436;18.926;2022-09-09T04:31:06;2.80;;;1.98;;
48189;SDS011;33980;47.436;18.926;2022-09-09T04:33:37;3.22;;;1.87;;
48189;SDS011;33980;47.436;18.926;2022-09-09T04:36:07;2.50;;;1.67;;
48189;SDS011;33980;47.436;18.926;2022-09-09T04:38:36;2.83;;;1.92;;
48189;SDS011;33980;47.436;18.926;2022-09-09T04:41:05;2.70;;;1.67;;
48189;SDS011;33980;47.436;18.926;2022-09-09T04:43:36;3.10;;;1.77;;
48189;SDS011;33980;47.436;18.926;2022-09-09T04:46:06;3.40;;;1.98;;
48189;SDS011;33980;47.436;18.926;2022-09-09T04:48:34;3.33;;;1.65;;
48189;SDS011;33980;47.436;18.926;2022-09-09T04:51:04;2.53;;;1.58;;
48189;SDS011;33980;47.436;18.926;2022-09-09T04:53:34;3.37;;;1.95;;
48189;SDS011;33980;47.436;18.926;2022-09-09T04:56:06;2.65;;;1.67;;
48189;SDS011;33980;47.436;18.926;2022-09-09T04:58:39;3.30;;;2.05;;
48189;SDS011;33980;47.436;18.926;2022-09-09T05:01:10;3.15;;;1.98;;
48189;SDS011;33980;47.436;18.926;2022-09-09T05:03:40;3.58;;;2.22;;
48189;SDS011;33980;47.436;18.926;2022-09-09T05:06:10;3.78;;;2.20;;
48189;SDS011;33980;47.436;18.926;2022-09-09T05:08:39;2.90;;;1.62;;
48189;SDS011;33980;47.436;18.926;2022-09-09T05:11:16;3.37;;;1.85;;
48189;SDS011;33980;47.436;18.926;2022-09-09T05:13:47;3.70;;;1.80;;
48189;SDS011;33980;47.436;18.926;2022-09-09T05:16:17;3.45;;;2.08;;
48189;SDS011;33980;47.436;18.926;2022-09-09T05:18:46;3.25;;;1.67;;
48189;SDS011;33980;47.436;18.926;2022-09-09T05:21:16;3.70;;;1.87;;
48189;SDS011;33980;47.436;18.926;2022-09-09T05:23:46;2.37;;;1.63;;
48189;SDS011;33980;47.436;18.926;2022-09-09T05:26:15;3.83;;;2.03;;
48189;SDS011;33980;47.436;18.926;2022-09-09T05:28:48;2.40;;;1.67;;
48189;SDS011;33980;47.436;18.926;2022-09-09T05:31:17;3.10;;;1.90;;
48189;SDS011;33980;47.436;18.926;2022-09-09T05:33:48;3.95;;;2.20;;
48189;SDS011;33980;47.436;18.926;2022-09-09T05:36:18;4.43;;;1.80;;
48189;SDS011;33980;47.436;18.926;2022-09-09T05:38:48;2.22;;;1.42;;
48189;SDS011;33980;47.436;18.926;2022-09-09T05:41:18;3.20;;;1.90;;
48189;SDS011;33980;47.436;18.926;2022-09-09T05:43:48;2.78;;;1.65;;
48189;SDS011;33980;47.436;18.926;2022-09-09T05:46:18;2.40;;;1.45;;
48189;SDS011;33980;47.436;18.926;2022-09-09T05:48:50;2.75;;;1.70;;
48189;SDS011;33980;47.436;18.926;2022-09-09T05:51:21;3.03;;;1.67;;
48189;SDS011;33980;47.436;18.926;2022-09-09T05:53:51;2.90;;;1.75;;
48189;SDS011;33980;47.436;18.926;2022-09-09T05:56:23;3.10;;;2.08;;
48189;SDS011;33980;47.436;18.926;2022-09-09T05:58:55;4.03;;;1.95;;
48189;SDS011;33980;47.436;18.926;2022-09-09T06:01:25;3.03;;;1.90;;
48189;SDS011;33980;47.436;18.926;2022-09-09T06:03:56;3.08;;;1.70;;
48189;SDS011;33980;47.436;18.926;2022-09-09T06:06:25;3.95;;;2.03;;
48189;SDS011;33980;47.436;18.926;2022-09-09T06:08:56;3.55;;;2.00;;
48189;SDS011;33980;47.436;18.926;2022-09-09T06:11:26;2.75;;;1.80;;
48189;SDS011;33980;47.436;18.926;2022-09-09T06:14:00;2.12;;;1.70;;
48189;SDS011;33980;47.436;18.926;2022-09-09T06:16:29;2.97;;;1.75;;
48189;SDS011;33980;47.436;18.926;2022-09-09T06:19:00;2.87;;;1.60;;
48189;SDS011;33980;47.436;18.926;2022-09-09T06:21:30;2.15;;;1.55;;
48189;SDS011;33980;47.436;18.926;2022-09-09T06:24:01;3.80;;;1.95;;
48189;SDS011;33980;47.436;18.926;2022-09-09T06:26:31;5.65;;;1.77;;
48189;SDS011;33980;47.436;18.926;2022-09-09T06:29:02;2.37;;;1.83;;
48189;SDS011;33980;47.436;18.926;2022-09-09T06:31:33;3.42;;;1.80;;
48189;SDS011;33980;47.436;18.926;2022-09-09T06:34:05;2.42;;;1.60;;
48189;SDS011;33980;47.436;18.926;2022-09-09T06:36:35;3.53;;;1.45;;
48189;SDS011;33980;47.436;18.926;2022-09-09T06:39:06;2.50;;;1.87;;
48189;SDS011;33980;47.436;18.926;2022-09-09T06:41:41;3.05;;;1.62;;
48189;SDS011;33980;47.436;18.926;2022-09-09T06:44:15;2.08;;;1.20;;
48189;SDS011;33980;47.436;18.926;2022-09-09T06:46:46;2.55;;;1.50;;
48189;SDS011;33980;47.436;18.926;2022-09-09T06:49:15;2.78;;;1.58;;
48189;SDS011;33980;47.436;18.926;2022-09-09T06:51:44;1.80;;;1.17;;
48189;SDS011;33980;47.436;18.926;2022-09-09T06:54:13;1.95;;;1.23;;
48189;SDS011;33980;47.436;18.926;2022-09-09T06:56:42;2.00;;;1.30;;
48189;SDS011;33980;47.436;18.926;2022-09-09T06:59:12;2.20;;;1.42;;
48189;SDS011;33980;47.436;18.926;2022-09-09T07:01:42;2.45;;;1.48;;
48189;SDS011;33980;47.436;18.926;2022-09-09T07:04:12;2.12;;;1.33;;
48189;SDS011;33980;47.436;18.926;2022-09-09T07:06:42;1.20;;;1.00;;
48189;SDS011;33980;47.436;18.926;2022-09-09T07:09:13;2.87;;;1.83;;
48189;SDS011;33980;47.436;18.926;2022-09-09T07:11:44;1.98;;;1.37;;
48189;SDS011;33980;47.436;18.926;2022-09-09T07:14:14;1.83;;;1.15;;
48189;SDS011;33980;47.436;18.926;2022-09-09T07:16:45;3.37;;;1.47;;
48189;SDS011;33980;47.436;18.926;2022-09-09T07:19:15;2.80;;;1.40;;
48189;SDS011;33980;47.436;18.926;2022-09-09T07:21:44;1.95;;;1.23;;
48189;SDS011;33980;47.436;18.926;2022-09-09T07:24:13;1.77;;;1.30;;
48189;SDS011;33980;47.436;18.926;2022-09-09T07:26:43;2.35;;;1.40;;
48189;SDS011;33980;47.436;18.926;2022-09-09T07:29:13;5.68;;;1.45;;
48189;SDS011;33980;47.436;18.926;2022-09-09T07:31:48;3.12;;;1.70;;
48189;SDS011;33980;47.436;18.926;2022-09-09T07:34:17;1.50;;;1.13;;
48189;SDS011;33980;47.436;18.926;2022-09-09T07:36:50;8.40;;;2.47;;
48189;SDS011;33980;47.436;18.926;2022-09-09T07:39:19;1.27;;;0.98;;
48189;SDS011;33980;47.436;18.926;2022-09-09T07:41:48;1.23;;;1.08;;
48189;SDS011;33980;47.436;18.926;2022-09-09T07:44:19;1.30;;;1.20;;
48189;SDS011;33980;47.436;18.926;2022-09-09T07:49:19;2.10;;;1.30;;
48189;SDS011;33980;47.436;18.926;2022-09-09T07:51:58;2.37;;;1.08;;
48189;SDS011;33980;47.436;18.926;2022-09-09T07:54:27;1.30;;;0.93;;
48189;SDS011;33980;47.436;18.926;2022-09-09T07:56:57;1.80;;;1.08;;
48189;SDS011;33980;47.436;18.926;2022-09-09T07:59:26;1.30;;;0.80;;
48189;SDS011;33980;47.436;18.926;2022-09-09T08:04:28;1.23;;;0.88;;
48189;SDS011;33980;47.436;18.926;2022-09-09T08:06:57;1.95;;;1.10;;
48189;SDS011;33980;47.436;18.926;2022-09-09T08:09:28;0.82;;;0.75;;
48189;SDS011;33980;47.436;18.926;2022-09-09T08:11:57;1.15;;;0.95;;
48189;SDS011;33980;47.436;18.926;2022-09-09T08:14:28;0.88;;;0.88;;
48189;SDS011;33980;47.436;18.926;2022-09-09T08:16:56;1.42;;;0.95;;
48189;SDS011;33980;47.436;18.926;2022-09-09T08:19:27;1.17;;;0.82;;
48189;SDS011;33980;47.436;18.926;2022-09-09T08:21:57;1.58;;;0.85;;
48189;SDS011;33980;47.436;18.926;2022-09-09T08:24:26;1.35;;;0.90;;
48189;SDS011;33980;47.436;18.926;2022-09-09T08:26:55;2.97;;;0.88;;
48189;SDS011;33980;47.436;18.926;2022-09-09T08:29:25;0.70;;;0.70;;
48189;SDS011;33980;47.436;18.926;2022-09-09T08:31:56;1.00;;;0.88;;
48189;SDS011;33980;47.436;18.926;2022-09-09T08:34:28;1.37;;;0.80;;
48189;SDS011;33980;47.436;18.926;2022-09-09T08:36:59;0.85;;;0.80;;
48189;SDS011;33980;47.436;18.926;2022-09-09T08:39:28;0.70;;;0.70;;
48189;SDS011;33980;47.436;18.926;2022-09-09T08:47:47;0.80;;;0.68;;
48189;SDS011;33980;47.436;18.926;2022-09-09T08:50:24;0.82;;;0.62;;
48189;SDS011;33980;47.436;18.926;2022-09-09T08:52:56;1.00;;;0.70;;
48189;SDS011;33980;47.436;18.926;2022-09-09T08:55:33;0.50;;;0.50;;
48189;SDS011;33980;47.436;18.926;2022-09-09T08:58:09;1.00;;;0.80;;
48189;SDS011;33980;47.436;18.926;2022-09-09T09:00:48;1.10;;;0.80;;
48189;SDS011;33980;47.436;18.926;2022-09-09T09:03:30;0.90;;;0.70;;
48189;SDS011;33980;47.436;18.926;2022-09-09T09:06:06;1.42;;;0.70;;
48189;SDS011;33980;47.436;18.926;2022-09-09T09:08:43;1.12;;;0.68;;
48189;SDS011;33980;47.436;18.926;2022-09-09T09:11:15;2.40;;;1.00;;
48189;SDS011;33980;47.436;18.926;2022-09-09T09:13:45;0.50;;;0.50;;
48189;SDS011;33980;47.436;18.926;2022-09-09T09:16:19;0.60;;;0.52;;
48189;SDS011;33980;47.436;18.926;2022-09-09T09:18:52;0.50;;;0.50;;
48189;SDS011;33980;47.436;18.926;2022-09-09T09:21:32;1.17;;;0.60;;
48189;SDS011;33980;47.436;18.926;2022-09-09T09:24:03;1.33;;;0.73;;
48189;SDS011;33980;47.436;18.926;2022-09-09T09:26:36;0.52;;;0.50;;
48189;SDS011;33980;47.436;18.926;2022-09-09T09:29:08;0.52;;;0.52;;
48189;SDS011;33980;47.436;18.926;2022-09-09T09:31:41;0.40;;;0.40;;
48189;SDS011;33980;47.436;18.926;2022-09-09T09:34:12;0.50;;;0.50;;
48189;SDS011;33980;47.436;18.926;2022-09-09T09:36:43;0.40;;;0.40;;
48189;SDS011;33980;47.436;18.926;2022-09-09T09:39:22;1.17;;;0.75;;
48189;SDS011;33980;47.436;18.926;2022-09-09T09:42:12;0.50;;;0.50;;
48189;SDS011;33980;47.436;18.926;2022-09-09T09:44:45;0.90;;;0.50;;
48189;SDS011;33980;47.436;18.926;2022-09-09T09:47:15;0.30;;;0.30;;
48189;SDS011;33980;47.436;18.926;2022-09-09T09:49:51;0.55;;;0.45;;
48189;SDS011;33980;47.436;18.926;2022-09-09T09:52:23;0.47;;;0.30;;
48189;SDS011;33980;47.436;18.926;2022-09-09T09:54:53;0.30;;;0.30;;
48189;SDS011;33980;47.436;18.926;2022-09-09T09:57:23;0.40;;;0.40;;
48189;SDS011;33980;47.436;18.926;2022-09-09T10:00:12;0.30;;;0.30;;
48189;SDS011;33980;47.436;18.926;2022-09-09T10:02:46;0.55;;;0.40;;
48189;SDS011;33980;47.436;18.926;2022-09-09T10:08:04;0.40;;;0.40;;
48189;SDS011;33980;47.436;18.926;2022-09-09T10:10:37;0.40;;;0.40;;
48189;SDS011;33980;47.436;18.926;2022-09-09T10:13:15;0.77;;;0.68;;
48189;SDS011;33980;47.436;18.926;2022-09-09T10:15:49;0.57;;;0.57;;
48189;SDS011;33980;47.436;18.926;2022-09-09T10:18:40;0.88;;;0.50;;
48189;SDS011;33980;47.436;18.926;2022-09-09T10:21:20;0.82;;;0.40;;
48189;SDS011;33980;47.436;18.926;2022-09-09T10:24:09;0.47;;;0.47;;
48189;SDS011;33980;47.436;18.926;2022-09-09T10:26:46;0.32;;;0.32;;
48189;SDS011;33980;47.436;18.926;2022-09-09T10:29:29;0.40;;;0.40;;
48189;SDS011;33980;47.436;18.926;2022-09-09T10:32:17;0.28;;;0.28;;
48189;SDS011;33980;47.436;18.926;2022-09-09T10:35:10;0.70;;;0.45;;
48189;SDS011;33980;47.436;18.926;2022-09-09T10:37:45;0.20;;;0.20;;
48189;SDS011;33980;47.436;18.926;2022-09-09T10:40:30;0.20;;;0.20;;
48189;SDS011;33980;47.436;18.926;2022-09-09T10:43:07;0.65;;;0.40;;
48189;SDS011;33980;47.436;18.926;2022-09-09T10:45:44;0.40;;;0.40;;
48189;SDS011;33980;47.436;18.926;2022-09-09T10:48:31;0.43;;;0.40;;
48189;SDS011;33980;47.436;18.926;2022-09-09T10:51:13;0.37;;;0.37;;
48189;SDS011;33980;47.436;18.926;2022-09-09T10:53:53;6.22;;;1.95;;
48189;SDS011;33980;47.436;18.926;2022-09-09T10:56:32;0.32;;;0.30;;
48189;SDS011;33980;47.436;18.926;2022-09-09T10:59:02;0.20;;;0.20;;
48189;SDS011;33980;47.436;18.926;2022-09-09T11:01:36;0.20;;;0.20;;
48189;SDS011;33980;47.436;18.926;2022-09-09T11:04:10;0.77;;;0.32;;
48189;SDS011;33980;47.436;18.926;2022-09-09T11:06:41;0.20;;;0.20;;
48189;SDS011;33980;47.436;18.926;2022-09-09T11:09:14;0.30;;;0.20;;
48189;SDS011;33980;47.436;18.926;2022-09-09T11:11:47;0.35;;;0.30;;
48189;SDS011;33980;47.436;18.926;2022-09-09T11:14:22;0.20;;;0.20;;
48189;SDS011;33980;47.436;18.926;2022-09-09T11:17:04;0.20;;;0.20;;
48189;SDS011;33980;47.436;18.926;2022-09-09T11:19:38;1.05;;;0.43;;
48189;SDS011;33980;47.436;18.926;2022-09-09T11:22:08;0.35;;;0.30;;
48189;SDS011;33980;47.436;18.926;2022-09-09T11:24:44;0.45;;;0.32;;
48189;SDS011;33980;47.436;18.926;2022-09-09T11:27:17;0.55;;;0.25;;
48189;SDS011;33980;47.436;18.926;2022-09-09T11:30:03;1.10;;;0.60;;
48189;SDS011;33980;47.436;18.926;2022-09-09T11:32:40;0.62;;;0.30;;
48189;SDS011;33980;47.436;18.926;2022-09-09T11:35:39;2.25;;;0.73;;
48189;SDS011;33980;47.436;18.926;2022-09-09T11:38:15;0.73;;;0.40;;
48189;SDS011;33980;47.436;18.926;2022-09-09T11:40:47;0.43;;;0.30;;
48189;SDS011;33980;47.436;18.926;2022-09-09T11:43:25;0.77;;;0.40;;
48189;SDS011;33980;47.436;18.926;2022-09-09T11:45:56;0.20;;;0.20;;
48189;SDS011;33980;47.436;18.926;2022-09-09T11:48:29;0.40;;;0.40;;
48189;SDS011;33980;47.436;18.926;2022-09-09T11:51:03;0.30;;;0.30;;
48189;SDS011;33980;47.436;18.926;2022-09-09T11:53:47;0.52;;;0.50;;
48189;SDS011;33980;47.436;18.926;2022-09-09T11:56:29;0.47;;;0.45;;
48189;SDS011;33980;47.436;18.926;2022-09-09T11:59:02;0.30;;;0.30;;
48189;SDS011;33980;47.436;18.926;2022-09-09T12:01:35;1.00;;;0.32;;
48189;SDS011;33980;47.436;18.926;2022-09-09T12:04:06;1.12;;;0.35;;
48189;SDS011;33980;47.436;18.926;2022-09-09T12:06:49;0.40;;;0.37;;
48189;SDS011;33980;47.436;18.926;2022-09-09T12:09:21;1.02;;;0.40;;
48189;SDS011;33980;47.436;18.926;2022-09-09T12:11:52;0.37;;;0.37;;
48189;SDS011;33980;47.436;18.926;2022-09-09T12:14:36;1.33;;;0.40;;
48189;SDS011;33980;47.436;18.926;2022-09-09T12:17:10;0.32;;;0.32;;
48189;SDS011;33980;47.436;18.926;2022-09-09T12:19:47;0.65;;;0.40;;
48189;SDS011;33980;47.436;18.926;2022-09-09T12:22:19;0.30;;;0.30;;
48189;SDS011;33980;47.436;18.926;2022-09-09T12:24:54;0.57;;;0.40;;
48189;SDS011;33980;47.436;18.926;2022-09-09T12:27:27;1.10;;;0.45;;
48189;SDS011;33980;47.436;18.926;2022-09-09T12:30:03;0.35;;;0.35;;
48189;SDS011;33980;47.436;18.926;2022-09-09T12:32:35;0.75;;;0.32;;
48189;SDS011;33980;47.436;18.926;2022-09-09T12:35:09;0.88;;;0.40;;
48189;SDS011;33980;47.436;18.926;2022-09-09T12:37:39;0.20;;;0.20;;
48189;SDS011;33980;47.436;18.926;2022-09-09T12:40:18;0.55;;;0.30;;
48189;SDS011;33980;47.436;18.926;2022-09-09T12:42:48;0.40;;;0.30;;
48189;SDS011;33980;47.436;18.926;2022-09-09T12:45:22;0.30;;;0.30;;
48189;SDS011;33980;47.436;18.926;2022-09-09T12:47:53;0.98;;;0.30;;
48189;SDS011;33980;47.436;18.926;2022-09-09T12:50:26;0.45;;;0.30;;
48189;SDS011;33980;47.436;18.926;2022-09-09T12:52:57;0.60;;;0.35;;
48189;SDS011;33980;47.436;18.926;2022-09-09T12:55:28;0.68;;;0.30;;
48189;SDS011;33980;47.436;18.926;2022-09-09T12:57:58;0.40;;;0.30;;
48189;SDS011;33980;47.436;18.926;2022-09-09T13:00:29;1.12;;;0.45;;
48189;SDS011;33980;47.436;18.926;2022-09-09T13:02:59;0.32;;;0.30;;
48189;SDS011;33980;47.436;18.926;2022-09-09T13:05:34;0.20;;;0.20;;
48189;SDS011;33980;47.436;18.926;2022-09-09T13:08:04;1.40;;;0.55;;
48189;SDS011;33980;47.436;18.926;2022-09-09T13:10:35;0.88;;;0.40;;
48189;SDS011;33980;47.436;18.926;2022-09-09T13:13:20;0.20;;;0.20;;
48189;SDS011;33980;47.436;18.926;2022-09-09T13:15:53;0.35;;;0.28;;
48189;SDS011;33980;47.436;18.926;2022-09-09T13:18:23;0.35;;;0.20;;
48189;SDS011;33980;47.436;18.926;2022-09-09T13:20:53;0.10;;;0.10;;
48189;SDS011;33980;47.436;18.926;2022-09-09T13:23:26;0.40;;;0.30;;
48189;SDS011;33980;47.436;18.926;2022-09-09T13:25:57;0.15;;;0.10;;
48189;SDS011;33980;47.436;18.926;2022-09-09T13:28:27;0.30;;;0.20;;
48189;SDS011;33980;47.436;18.926;2022-09-09T13:31:02;0.90;;;0.40;;
48189;SDS011;33980;47.436;18.926;2022-09-09T13:33:32;0.95;;;0.40;;
48189;SDS011;33980;47.436;18.926;2022-09-09T13:36:05;0.20;;;0.17;;
48189;SDS011;33980;47.436;18.926;2022-09-09T13:38:35;0.47;;;0.28;;
48189;SDS011;33980;47.436;18.926;2022-09-09T13:41:06;0.28;;;0.28;;
48189;SDS011;33980;47.436;18.926;2022-09-09T13:43:36;0.20;;;0.20;;
48189;SDS011;33980;47.436;18.926;2022-09-09T13:48:55;0.47;;;0.30;;
48189;SDS011;33980;47.436;18.926;2022-09-09T13:51:33;0.40;;;0.30;;
48189;SDS011;33980;47.436;18.926;2022-09-09T13:54:04;0.30;;;0.20;;
48189;SDS011;33980;47.436;18.926;2022-09-09T13:56:34;0.20;;;0.20;;
48189;SDS011;33980;47.436;18.926;2022-09-09T13:59:06;0.60;;;0.20;;
48189;SDS011;33980;47.436;18.926;2022-09-09T14:01:39;0.85;;;0.35;;
48189;SDS011;33980;47.436;18.926;2022-09-09T14:04:11;1.23;;;0.20;;
48189;SDS011;33980;47.436;18.926;2022-09-09T14:06:40;0.13;;;0.13;;
48189;SDS011;33980;47.436;18.926;2022-09-09T14:09:10;0.20;;;0.20;;
48189;SDS011;33980;47.436;18.926;2022-09-09T14:11:40;0.88;;;0.32;;
48189;SDS011;33980;47.436;18.926;2022-09-09T14:14:09;0.37;;;0.20;;
48189;SDS011;33980;47.436;18.926;2022-09-09T14:16:37;0.20;;;0.20;;
48189;SDS011;33980;47.436;18.926;2022-09-09T14:19:08;1.00;;;0.20;;
48189;SDS011;33980;47.436;18.926;2022-09-09T14:21:37;1.12;;;0.43;;
48189;SDS011;33980;47.436;18.926;2022-09-09T14:24:05;0.68;;;0.30;;
48189;SDS011;33980;47.436;18.926;2022-09-09T14:26:34;0.40;;;0.15;;
48189;SDS011;33980;47.436;18.926;2022-09-09T14:29:03;0.10;;;0.10;;
48189;SDS011;33980;47.436;18.926;2022-09-09T14:31:32;0.40;;;0.25;;
48189;SDS011;33980;47.436;18.926;2022-09-09T14:34:02;0.35;;;0.20;;
48189;SDS011;33980;47.436;18.926;2022-09-09T14:36:31;0.17;;;0.17;;
48189;SDS011;33980;47.436;18.926;2022-09-09T14:39:00;0.55;;;0.40;;
48189;SDS011;33980;47.436;18.926;2022-09-09T14:41:29;0.50;;;0.20;;
48189;SDS011;33980;47.436;18.926;2022-09-09T14:43:58;0.22;;;0.22;;
48189;SDS011;33980;47.436;18.926;2022-09-09T14:46:26;0.55;;;0.37;;
48189;SDS011;33980;47.436;18.926;2022-09-09T14:48:59;0.43;;;0.30;;
48189;SDS011;33980;47.436;18.926;2022-09-09T14:51:29;2.08;;;0.60;;
48189;SDS011;33980;47.436;18.926;2022-09-09T14:53:59;0.20;;;0.20;;
48189;SDS011;33980;47.436;18.926;2022-09-09T14:58:58;1.87;;;0.40;;
48189;SDS011;33980;47.436;18.926;2022-09-09T15:01:28;0.70;;;0.37;;
48189;SDS011;33980;47.436;18.926;2022-09-09T15:03:58;0.10;;;0.10;;
48189;SDS011;33980;47.436;18.926;2022-09-09T15:06:32;1.35;;;0.40;;
48189;SDS011;33980;47.436;18.926;2022-09-09T15:09:03;1.98;;;0.50;;
48189;SDS011;33980;47.436;18.926;2022-09-09T15:11:33;0.50;;;0.35;;
48189;SDS011;33980;47.436;18.926;2022-09-09T15:14:05;0.60;;;0.20;;
48189;SDS011;33980;47.436;18.926;2022-09-09T15:16:34;1.42;;;0.50;;
48189;SDS011;33980;47.436;18.926;2022-09-09T15:19:03;0.50;;;0.20;;
48189;SDS011;33980;47.436;18.926;2022-09-09T15:21:34;1.08;;;0.50;;
48189;SDS011;33980;47.436;18.926;2022-09-09T15:24:04;0.40;;;0.20;;
48189;SDS011;33980;47.436;18.926;2022-09-09T15:26:34;0.98;;;0.25;;
48189;SDS011;33980;47.436;18.926;2022-09-09T15:29:05;0.68;;;0.30;;